Open Full Screen Window  High Contrast Mode
Wind Gusting 00 knots
08
September 25, 2018 11:32 AM EDT
Weather Information
Wind Direction
  220 °
Wind Speed
  08 kt (9 mph)
Wind Gust
  00 kt (0 mph)
Altimeter
30.06 in
Visibility
7 SM
Temperature
21° C
70° F
Dewpoint
20° C
68° F
Humidity
94%
1hr Rain Fall
00.01 in.
24hr Rain Fall
00.36 in.
Sky Condition
Overcast @ 600 ft
IFR

METAR KMRT 251532Z AUTO 22008KT 7SM OVC006 21/20 A3006 RMK AO2 P0001 T02080201

FAA Disclaimer: The data displayed is for advisory purposes only and is not to be used for flight planning or operations.